createdAt,value
2017-10-08T00:00:17.496Z,0.4
2017-10-08T00:02:17.328Z,0.3
2017-10-08T00:04:17.188Z,0.2
2017-10-08T00:06:18.056Z,0.2
2017-10-08T00:08:16.929Z,0.1
2017-10-08T00:10:17.792Z,0.3
2017-10-08T00:12:16.659Z,0.2
2017-10-08T00:14:17.492Z,0.2
2017-10-08T00:16:17.349Z,0.2
2017-10-08T00:18:18.196Z,0.4
2017-10-08T00:20:17.028Z,0.3
2017-10-08T00:22:16.890Z,0.1
2017-10-08T00:24:16.754Z,0.3
2017-10-08T00:26:17.596Z,0.2
2017-10-08T00:28:17.454Z,0.2
2017-10-08T00:30:21.276Z,0.6
2017-10-08T00:32:17.138Z,0.5
2017-10-08T00:34:16.985Z,0.3
2017-10-08T00:36:16.851Z,0.2
2017-10-08T00:38:16.679Z,0.2
2017-10-08T00:40:17.529Z,0.1
2017-10-08T00:42:17.402Z,0.2
2017-10-08T00:44:17.264Z,0.1
2017-10-08T00:46:17.101Z,0.4
2017-10-08T00:48:16.953Z,0.1
2017-10-08T00:50:16.804Z,0.1
2017-10-08T00:52:16.662Z,0.2
2017-10-08T00:54:17.500Z,0.2
2017-10-08T00:56:17.349Z,0.1
2017-10-08T00:58:17.226Z,0.2
2017-10-08T01:00:17.059Z,0.2
2017-10-08T01:02:16.924Z,0.1
2017-10-08T01:04:16.786Z,0.2
2017-10-08T01:06:17.658Z,0.2
2017-10-08T01:08:17.504Z,0.2
2017-10-08T01:10:17.347Z,0.1
2017-10-08T01:12:17.214Z,0.3
2017-10-08T01:14:17.072Z,0.2
2017-10-08T01:16:16.917Z,0.3
2017-10-08T01:18:17.776Z,0.1
2017-10-08T01:20:16.611Z,0.1
2017-10-08T01:22:17.482Z,0.2
2017-10-08T01:24:17.321Z,0.2
2017-10-08T01:26:18.198Z,0.2
2017-10-08T01:28:17.045Z,0.2
2017-10-08T01:30:16.942Z,0.3
2017-10-08T01:32:16.806Z,0.3
2017-10-08T01:34:20.652Z,0.4
2017-10-08T01:36:17.532Z,0.1
2017-10-08T01:38:17.374Z,0.1
2017-10-08T01:40:17.258Z,0.4
2017-10-08T01:42:17.108Z,0.2
2017-10-08T01:44:16.966Z,0.2
2017-10-08T01:46:17.843Z,0.1
2017-10-08T01:48:16.715Z,0.1
2017-10-08T01:50:17.566Z,0.2
2017-10-08T01:52:17.421Z,0.1
2017-10-08T01:54:17.289Z,0.2
2017-10-08T01:56:18.166Z,0.1
2017-10-08T01:58:17.055Z,0.2
2017-10-08T02:00:20.899Z,0.2
2017-10-08T02:02:16.825Z,0.2
2017-10-08T02:04:16.668Z,0.2
2017-10-08T02:06:17.508Z,0.2
2017-10-08T02:08:17.395Z,0.2
2017-10-08T02:10:17.252Z,0.2
2017-10-08T02:12:17.108Z,0.5
2017-10-08T02:14:16.974Z,0.3
2017-10-08T02:16:16.850Z,0.2
2017-10-08T02:18:16.726Z,0.3
2017-10-08T02:20:16.594Z,0.2
2017-10-08T02:22:17.441Z,0.3
2017-10-08T02:24:17.315Z,0.2
2017-10-08T02:26:17.179Z,0.2
2017-10-08T02:28:17.058Z,0.3
2017-10-08T02:30:16.927Z,0.3
2017-10-08T02:32:16.806Z,0.3
2017-10-08T02:34:16.706Z,0.2
2017-10-08T02:36:17.572Z,0.2
2017-10-08T02:38:17.409Z,0.3
2017-10-08T02:40:17.287Z,0.2
2017-10-08T02:42:17.152Z,0.2
2017-10-08T02:44:17.026Z,0.2
2017-10-08T02:46:17.889Z,0.4
2017-10-08T02:48:16.752Z,0.4
2017-10-08T02:50:16.607Z,0.3
2017-10-08T02:52:17.500Z,0.4
2017-10-08T02:54:17.350Z,0.3
2017-10-08T02:56:18.226Z,0.3
2017-10-08T02:58:17.092Z,0.2
2017-10-08T03:00:16.982Z,0.6
2017-10-08T03:02:16.866Z,0.4
2017-10-08T03:04:16.732Z,0.3
2017-10-08T03:06:17.619Z,0.3
2017-10-08T03:08:17.502Z,0.3
2017-10-08T03:10:17.385Z,0.3
2017-10-08T03:12:17.243Z,0.3
2017-10-08T03:14:17.124Z,0.6
2017-10-08T03:16:16.970Z,0.4
2017-10-08T03:18:16.877Z,0.4
2017-10-08T03:20:16.748Z,0.4
2017-10-08T03:22:16.659Z,0.4
2017-10-08T03:24:17.527Z,0.4
2017-10-08T03:26:17.409Z,0.4
2017-10-08T03:28:17.295Z,0.3
2017-10-08T03:30:17.164Z,0.5
2017-10-08T03:32:17.050Z,0.4
2017-10-08T03:34:16.929Z,0.8
2017-10-08T03:36:17.818Z,0.5
2017-10-08T03:38:16.700Z,0.5
2017-10-08T03:40:17.592Z,0.5
2017-10-08T03:42:17.462Z,0.5
2017-10-08T03:44:17.354Z,0.4
2017-10-08T03:46:18.230Z,0.5
2017-10-08T03:48:17.108Z,0.4
2017-10-08T03:50:17.011Z,0.5
2017-10-08T03:52:16.893Z,0.5
2017-10-08T03:54:16.781Z,0.4
2017-10-08T03:56:17.669Z,0.4
2017-10-08T03:58:21.522Z,0.6
2017-10-08T04:00:17.447Z,0.4
2017-10-08T04:02:17.313Z,0.5
2017-10-08T04:04:17.192Z,0.3
2017-10-08T04:06:17.098Z,0.4
2017-10-08T04:08:16.987Z,0.7
2017-10-08T04:10:17.872Z,0.6
2017-10-08T04:12:16.755Z,0.5
2017-10-08T04:14:16.639Z,0.6
2017-10-08T04:16:17.531Z,0.4
2017-10-08T04:18:18.406Z,0.6
2017-10-08T04:20:17.280Z,0.6
2017-10-08T04:22:17.169Z,0.5
2017-10-08T04:24:17.036Z,0.5
2017-10-08T04:26:17.889Z,0.5
2017-10-08T04:28:16.783Z,0.4
2017-10-08T04:30:16.657Z,0.5
2017-10-08T04:32:17.537Z,0.3
2017-10-08T04:34:17.413Z,0.5
2017-10-08T04:36:18.271Z,0.9
2017-10-08T04:38:17.175Z,0.5
2017-10-08T04:40:18.031Z,0.5
2017-10-08T04:42:16.918Z,0.5
2017-10-08T04:44:16.778Z,0.6
2017-10-08T04:46:17.657Z,0.4
2017-10-08T04:48:17.539Z,0.5
2017-10-08T04:50:17.406Z,0.5
2017-10-08T04:52:17.312Z,0.5
2017-10-08T04:54:17.177Z,0.7
2017-10-08T04:56:18.067Z,0.5
2017-10-08T04:58:16.948Z,0.5
2017-10-08T05:00:16.868Z,0.4
2017-10-08T05:02:16.724Z,0.5
2017-10-08T05:04:17.572Z,0.4
2017-10-08T05:06:17.456Z,0.4
2017-10-08T05:08:17.353Z,0.7
2017-10-08T05:10:17.235Z,0.5
2017-10-08T05:12:17.095Z,0.4
2017-10-08T05:14:16.985Z,0.6
2017-10-08T05:16:16.833Z,0.6
2017-10-08T05:18:16.726Z,0.6
2017-10-08T05:20:16.586Z,0.4
2017-10-08T05:22:17.487Z,0.4
2017-10-08T05:24:17.345Z,0.4
2017-10-08T05:26:18.195Z,0.7
2017-10-08T05:28:17.095Z,0.5
2017-10-08T05:30:16.940Z,0.3
2017-10-08T05:32:16.820Z,0.4
2017-10-08T05:34:16.697Z,0.3
2017-10-08T05:36:17.546Z,0.6
2017-10-08T05:38:17.424Z,0.4
2017-10-08T05:40:17.306Z,0.6
2017-10-08T05:42:17.185Z,0.4
2017-10-08T05:44:17.045Z,0.5
2017-10-08T05:46:17.910Z,0.6
2017-10-08T05:48:16.787Z,0.4
2017-10-08T05:50:17.641Z,0.5
2017-10-08T05:52:17.515Z,0.5
2017-10-08T05:54:17.393Z,0.3
2017-10-08T05:56:18.254Z,0.4
2017-10-08T05:58:17.136Z,0.4
2017-10-08T06:00:17.009Z,0.5
2017-10-08T06:02:16.887Z,0.3
2017-10-08T06:04:16.747Z,0.3
2017-10-08T06:06:17.640Z,0.4
2017-10-08T06:08:17.484Z,0.5
2017-10-08T06:10:17.344Z,0.3
2017-10-08T06:12:17.214Z,0.2
2017-10-08T06:14:17.066Z,0.2
2017-10-08T06:16:17.937Z,0.2
2017-10-08T06:18:17.801Z,0.2
2017-10-08T06:20:17.648Z,0.2
2017-10-08T06:22:17.500Z,0.3
2017-10-08T06:24:17.353Z,0.2
2017-10-08T06:26:17.200Z,0.4
2017-10-08T06:28:17.065Z,0.3
2017-10-08T06:30:16.933Z,0.3
2017-10-08T06:32:16.764Z,0.3
2017-10-08T06:34:16.612Z,1.6
2017-10-08T06:36:17.464Z,0.2
2017-10-08T06:38:17.329Z,0.2
2017-10-08T06:40:17.138Z,0.3
2017-10-08T06:42:16.996Z,0.1
2017-10-08T06:44:16.844Z,0.1
2017-10-08T06:46:17.658Z,0.1
2017-10-08T06:48:17.494Z,0.1
2017-10-08T06:50:17.366Z,0.2
2017-10-08T06:52:17.198Z,0.2
2017-10-08T06:54:17.067Z,0.2
2017-10-08T06:56:17.879Z,0.2
2017-10-08T06:58:16.757Z,0.4
2017-10-08T07:00:16.624Z,0.1
2017-10-08T07:02:17.468Z,0.2
2017-10-08T07:04:17.335Z,0.1
2017-10-08T07:06:17.184Z,0.2
2017-10-08T07:08:17.034Z,0.2
2017-10-08T07:10:17.891Z,0.2
2017-10-08T07:12:16.749Z,0.1
2017-10-08T07:14:16.619Z,0.1
2017-10-08T07:16:17.475Z,0.2
2017-10-08T07:18:18.319Z,0.5
2017-10-08T07:20:17.195Z,0.4
2017-10-08T07:22:17.060Z,0.3
2017-10-08T07:24:16.923Z,0.3
2017-10-08T07:26:17.765Z,0.2
2017-10-08T07:28:16.618Z,0.2
2017-10-08T07:30:17.500Z,0.2
2017-10-08T07:32:17.351Z,0.2
2017-10-08T07:34:17.224Z,0.2
2017-10-08T07:36:18.072Z,0.2
2017-10-08T07:38:16.934Z,0.3
2017-10-08T07:40:17.815Z,0.3
2017-10-08T07:42:16.700Z,0.5
2017-10-08T07:44:17.543Z,0.4
2017-10-08T07:46:17.407Z,0.3
2017-10-08T07:48:17.275Z,0.4
2017-10-08T07:50:17.138Z,0.5
2017-10-08T07:52:17.016Z,0.6
2017-10-08T07:54:16.886Z,0.5
2017-10-08T07:56:17.754Z,0.3
2017-10-08T07:58:16.621Z,0.3
2017-10-08T08:00:17.494Z,0.2
2017-10-08T08:02:17.350Z,0.4
2017-10-08T08:04:17.234Z,0.3
2017-10-08T08:06:17.126Z,0.2
2017-10-08T08:08:16.990Z,0.4
2017-10-08T08:10:17.886Z,0.3
2017-10-08T08:12:16.744Z,0.3
2017-10-08T08:14:16.626Z,0.3
2017-10-08T08:16:17.505Z,0.2
2017-10-08T08:18:18.362Z,0.3
2017-10-08T08:20:17.248Z,0.3
2017-10-08T08:22:17.133Z,0.2
2017-10-08T08:24:16.989Z,0.4
2017-10-08T08:26:17.891Z,0.3
2017-10-08T08:28:16.767Z,0.3
2017-10-08T08:30:16.630Z,0.3
2017-10-08T08:32:17.504Z,0.2
2017-10-08T08:34:17.375Z,0.2
2017-10-08T08:36:17.267Z,0.2
2017-10-08T08:38:21.129Z,0.5
2017-10-08T08:40:18.001Z,0.2
2017-10-08T08:42:16.886Z,0.3
2017-10-08T08:44:16.766Z,0.4
2017-10-08T08:46:17.610Z,0.2
2017-10-08T08:48:17.485Z,0.3
2017-10-08T08:50:17.319Z,0.3
2017-10-08T08:52:17.201Z,0.4
2017-10-08T08:54:17.086Z,0.5
2017-10-08T08:56:17.945Z,0.3
2017-10-08T08:58:16.824Z,0.4
2017-10-08T09:00:16.713Z,0.3
2017-10-08T09:02:17.565Z,0.3
2017-10-08T09:04:17.443Z,0.5
2017-10-08T09:06:17.316Z,0.4
2017-10-08T09:08:17.206Z,0.3
2017-10-08T09:10:18.079Z,0.5
2017-10-08T09:12:16.978Z,0.4
2017-10-08T09:14:16.866Z,0.3
2017-10-08T09:16:17.700Z,0.6
2017-10-08T09:18:17.566Z,0.3
2017-10-08T09:20:17.443Z,0.8
2017-10-08T09:22:17.334Z,0.4
2017-10-08T09:24:17.188Z,0.3
2017-10-08T09:26:18.074Z,0.5
2017-10-08T09:28:16.936Z,0.4
2017-10-08T09:30:16.819Z,0.3
2017-10-08T09:32:16.674Z,0.6
2017-10-08T09:34:17.523Z,0.5
2017-10-08T09:36:17.398Z,0.7
2017-10-08T09:38:17.264Z,0.4
2017-10-08T09:40:17.121Z,0.8
2017-10-08T09:42:16.957Z,0.6
2017-10-08T09:44:16.833Z,0.4
2017-10-08T09:46:17.702Z,0.6
2017-10-08T09:48:17.541Z,0.8
2017-10-08T09:50:17.420Z,0.5
2017-10-08T09:52:17.287Z,0.6
2017-10-08T09:54:17.154Z,0.5
2017-10-08T09:56:17.018Z,0.4
2017-10-08T09:58:16.887Z,0.4
2017-10-08T10:00:16.776Z,0.5
2017-10-08T10:02:16.621Z,0.8
2017-10-08T10:04:17.484Z,0.7
2017-10-08T10:06:17.343Z,0.6
2017-10-08T10:08:17.199Z,0.7
2017-10-08T10:10:17.060Z,0.7
2017-10-08T10:12:16.931Z,0.4
2017-10-08T10:14:16.784Z,0.4
2017-10-08T10:16:17.645Z,0.7
2017-10-08T10:18:21.516Z,0.6
2017-10-08T10:20:17.387Z,0.5
2017-10-08T10:22:17.238Z,0.7
2017-10-08T10:24:17.123Z,0.5
2017-10-08T10:26:17.981Z,0.5
2017-10-08T10:28:16.861Z,0.9
2017-10-08T10:30:16.707Z,0.5
2017-10-08T10:32:17.565Z,0.6
2017-10-08T10:34:17.422Z,0.8
2017-10-08T10:36:17.294Z,0.9
2017-10-08T10:38:17.143Z,0.7
2017-10-08T10:40:17.990Z,0.8
2017-10-08T10:42:16.871Z,0.7
2017-10-08T10:44:16.743Z,0.6
2017-10-08T10:46:17.600Z,0.4
2017-10-08T10:48:17.493Z,0.5
2017-10-08T10:50:17.373Z,0.6
2017-10-08T10:52:21.208Z,0.5
2017-10-08T10:54:17.099Z,0.6
2017-10-08T10:56:17.963Z,0.5
2017-10-08T10:58:16.868Z,0.6
2017-10-08T11:00:16.733Z,0.5
2017-10-08T11:02:16.607Z,0.6
2017-10-08T11:04:17.482Z,0.5
2017-10-08T11:06:17.350Z,0.5
2017-10-08T11:08:17.236Z,0.6
2017-10-08T11:10:17.114Z,0.6
2017-10-08T11:12:17.017Z,0.6
2017-10-08T11:14:16.879Z,0.5
2017-10-08T11:16:17.781Z,0.6
2017-10-08T11:18:16.671Z,0.6
2017-10-08T11:20:17.560Z,0.6
2017-10-08T11:22:17.471Z,0.6
2017-10-08T11:24:17.347Z,0.6
2017-10-08T11:26:17.231Z,0.4
2017-10-08T11:28:17.134Z,0.5
2017-10-08T11:30:17.304Z,0.5
2017-10-08T11:32:17.900Z,0.7
2017-10-08T11:34:16.801Z,0.7
2017-10-08T11:36:17.699Z,0.5
2017-10-08T11:38:17.588Z,0.4
2017-10-08T11:40:17.490Z,0.5
2017-10-08T11:42:17.394Z,0.4
2017-10-08T11:44:17.307Z,0.6
2017-10-08T11:46:18.212Z,0.6
2017-10-08T11:48:17.105Z,0.3
2017-10-08T11:50:17.009Z,0.5
2017-10-08T11:52:16.928Z,0.3
2017-10-08T11:54:16.804Z,0.3
2017-10-08T11:56:17.721Z,0.5
2017-10-08T11:58:16.641Z,0.5
2017-10-08T12:00:17.533Z,0.7
2017-10-08T12:02:17.457Z,0.5
2017-10-08T12:04:17.352Z,0.5
2017-10-08T12:06:18.255Z,0.5
2017-10-08T12:08:17.183Z,0.2
2017-10-08T12:10:18.107Z,0.3
2017-10-08T12:12:17.042Z,0.4
2017-10-08T12:14:16.958Z,0.4
2017-10-08T12:16:17.887Z,0.4
2017-10-08T12:18:16.815Z,0.4
2017-10-08T12:20:16.737Z,0.4
2017-10-08T12:22:17.659Z,0.2
2017-10-08T12:24:17.586Z,0.4
2017-10-08T12:26:17.505Z,0.4
2017-10-08T12:28:17.443Z,0.4
2017-10-08T12:30:17.397Z,0.3
2017-10-08T12:32:17.304Z,0.5
2017-10-08T12:34:17.237Z,0.5
2017-10-08T12:36:18.165Z,0.8
2017-10-08T12:38:17.108Z,0.4
2017-10-08T12:40:18.018Z,0.4
2017-10-08T12:42:16.958Z,0.5
2017-10-08T12:44:16.925Z,0.2
2017-10-08T12:46:16.791Z,0.3
2017-10-08T12:48:16.738Z,0.8
2017-10-08T12:50:16.653Z,1
2017-10-08T12:52:17.576Z,4.8
2017-10-08T12:54:17.512Z,1.6
2017-10-08T12:56:17.455Z,4.9
2017-10-08T12:58:17.362Z,3.6
2017-10-08T13:00:17.293Z,1
2017-10-08T13:02:17.220Z,0.9
2017-10-08T13:04:17.165Z,0.7
2017-10-08T13:06:18.082Z,0.6
2017-10-08T13:08:17.022Z,0.5
2017-10-08T13:10:17.962Z,1.4
2017-10-08T13:12:16.901Z,0.3
2017-10-08T13:14:16.861Z,0.3
2017-10-08T13:16:17.789Z,0.3
2017-10-08T13:18:16.722Z,0.6
2017-10-08T13:20:16.680Z,0.3
2017-10-08T13:22:17.621Z,0.1
2017-10-08T13:24:17.538Z,0.3
2017-10-08T13:26:17.497Z,0.3
2017-10-08T13:28:17.422Z,0.3
2017-10-08T13:30:17.397Z,0.1
2017-10-08T13:32:17.344Z,0.2
2017-10-08T13:34:17.289Z,0.2
2017-10-08T13:36:18.263Z,0.4
2017-10-08T13:38:17.230Z,0.5
2017-10-08T13:40:17.202Z,0.4
2017-10-08T13:42:17.162Z,0.4
2017-10-08T13:44:17.111Z,0.3
2017-10-08T13:46:18.073Z,0.4
2017-10-08T13:48:17.064Z,0.5
2017-10-08T13:50:17.021Z,0.3
2017-10-08T13:52:17.005Z,0.3
2017-10-08T13:54:16.989Z,0.3
2017-10-08T13:56:17.937Z,0.3
2017-10-08T13:58:16.905Z,0.2
2017-10-08T14:00:16.867Z,0.4
2017-10-08T14:02:16.792Z,0.4
2017-10-08T14:04:16.764Z,0.3
2017-10-08T14:06:17.738Z,0.3
2017-10-08T14:08:16.670Z,0.3
2017-10-08T14:10:17.614Z,0.3
2017-10-08T14:12:17.560Z,0.3
2017-10-08T14:14:17.549Z,0.2
2017-10-08T14:16:17.507Z,0.2
2017-10-08T14:18:17.441Z,0.4
2017-10-08T14:20:17.424Z,0.4
2017-10-08T14:22:17.368Z,0.4
2017-10-08T14:24:17.358Z,0.2
2017-10-08T14:26:18.304Z,0.3
2017-10-08T14:28:17.290Z,0.6
2017-10-08T14:30:17.255Z,0.2
2017-10-08T14:32:17.219Z,0.3
2017-10-08T14:34:17.168Z,0.6
2017-10-08T14:36:17.124Z,0.3
2017-10-08T14:38:17.093Z,0.4
2017-10-08T14:40:18.047Z,0.3
2017-10-08T14:42:16.971Z,0.4
2017-10-08T14:44:16.924Z,0.3
2017-10-08T14:46:17.865Z,0.4
2017-10-08T14:48:16.836Z,0.2
2017-10-08T14:50:16.760Z,0.4
2017-10-08T14:52:16.732Z,0.5
2017-10-08T14:54:16.656Z,0.2
2017-10-08T14:56:17.636Z,0.3
2017-10-08T14:58:17.566Z,0.6
2017-10-08T15:00:17.524Z,0.2
2017-10-08T15:02:17.488Z,0.1
2017-10-08T15:04:17.423Z,0.3
2017-10-08T15:06:17.384Z,0.2
2017-10-08T15:08:17.326Z,0.4
2017-10-08T15:10:17.263Z,0.2
2017-10-08T15:12:17.227Z,0.2
2017-10-08T15:14:17.168Z,0.6
2017-10-08T15:16:18.121Z,0.3
2017-10-08T15:18:17.061Z,0.3
2017-10-08T15:20:17.026Z,0.3
2017-10-08T15:22:16.971Z,0.2
2017-10-08T15:24:16.904Z,0.2
2017-10-08T15:26:17.852Z,0.2
2017-10-08T15:28:16.834Z,0.2
2017-10-08T15:30:16.790Z,0.3
2017-10-08T15:32:16.748Z,0.3
2017-10-08T15:34:16.704Z,0.3
2017-10-08T15:36:17.641Z,0.5
2017-10-08T15:38:17.572Z,0.2
2017-10-08T15:40:17.536Z,0.2
2017-10-08T15:42:17.463Z,0.2
2017-10-08T15:44:17.420Z,0.5
2017-10-08T15:46:17.356Z,0.2
2017-10-08T15:48:17.315Z,0.5
2017-10-08T15:50:17.249Z,0.3
2017-10-08T15:52:17.205Z,0.3
2017-10-08T15:54:17.123Z,0.3
2017-10-08T15:56:17.055Z,0.4
2017-10-08T15:58:17.006Z,0.2
2017-10-08T16:00:16.920Z,0.5
2017-10-08T16:02:16.851Z,0.3
2017-10-08T16:04:16.807Z,0.3
2017-10-08T16:06:17.739Z,0.5
2017-10-08T16:08:16.646Z,0.3
2017-10-08T16:10:17.564Z,0.5
2017-10-08T16:12:17.504Z,0.3
2017-10-08T16:14:17.432Z,0.6
2017-10-08T16:16:17.359Z,0.5
2017-10-08T16:18:17.284Z,0.4
2017-10-08T16:20:17.194Z,0.3
2017-10-08T16:22:17.121Z,0.5
2017-10-08T16:24:17.006Z,0.3
2017-10-08T16:26:16.923Z,0.5
2017-10-08T16:28:16.829Z,0.3
2017-10-08T16:30:16.742Z,0.7
2017-10-08T16:32:16.671Z,0.4
2017-10-08T16:34:17.559Z,0.4
2017-10-08T16:36:17.449Z,0.5
2017-10-08T16:38:17.380Z,0.6
2017-10-08T16:40:17.268Z,0.4
2017-10-08T16:42:17.150Z,0.5
2017-10-08T16:44:17.052Z,0.4
2017-10-08T16:46:16.952Z,0.5
2017-10-08T16:48:16.854Z,0.6
2017-10-08T16:50:16.754Z,0.6
2017-10-08T16:52:16.641Z,0.7
2017-10-08T16:54:17.537Z,0.8
2017-10-08T16:56:17.394Z,0.8
2017-10-08T16:58:17.279Z,0.8
2017-10-08T17:00:17.175Z,0.6
2017-10-08T17:02:17.074Z,0.8
2017-10-08T17:04:16.956Z,1
2017-10-08T17:06:17.854Z,0.7
2017-10-08T17:08:16.756Z,1.2
2017-10-08T17:10:17.626Z,1
2017-10-08T17:12:17.496Z,0.8
2017-10-08T17:14:17.395Z,1
2017-10-08T17:16:17.307Z,1.8
2017-10-08T17:18:18.186Z,1.2
2017-10-08T17:20:17.060Z,0.8
2017-10-08T17:22:16.957Z,1
2017-10-08T17:24:16.831Z,1.1
2017-10-08T17:26:17.717Z,0.9
2017-10-08T17:28:16.575Z,1.2
2017-10-08T17:30:17.471Z,1
2017-10-08T17:32:17.356Z,1
2017-10-08T17:34:17.255Z,1.2
2017-10-08T17:36:17.123Z,0.9
2017-10-08T17:38:16.985Z,0.8
2017-10-08T17:40:17.853Z,1.1
2017-10-08T17:42:16.758Z,0.7
2017-10-08T17:44:16.598Z,0.8
2017-10-08T17:46:17.480Z,0.6
2017-10-08T17:48:17.351Z,6.6
2017-10-08T17:50:17.251Z,5.8
2017-10-08T17:52:17.121Z,4.4
2017-10-08T17:54:16.983Z,2
2017-10-08T17:56:17.858Z,2.4
2017-10-08T17:58:16.772Z,2.5
2017-10-08T18:00:16.614Z,2.1
2017-10-08T18:02:17.484Z,1.4
2017-10-08T18:04:17.357Z,1.1
2017-10-08T18:06:18.244Z,1.8
2017-10-08T18:08:17.137Z,1.6
2017-10-08T18:10:18.004Z,1.8
2017-10-08T18:12:16.878Z,1.5
2017-10-08T18:14:16.764Z,2
2017-10-08T18:16:17.636Z,1.8
2017-10-08T18:18:18.492Z,2.3
2017-10-08T18:20:17.362Z,2.5
2017-10-08T18:22:17.226Z,2.3
2017-10-08T18:24:17.114Z,1.1
2017-10-08T18:26:16.991Z,0.9
2017-10-08T18:28:16.871Z,0.9
2017-10-08T18:30:16.743Z,1
2017-10-08T18:32:16.606Z,0.9
2017-10-08T18:34:17.460Z,1.1
2017-10-08T18:36:18.331Z,1.1
2017-10-08T18:38:17.206Z,1
2017-10-08T18:40:17.064Z,0.9
2017-10-08T18:42:16.932Z,1
2017-10-08T18:44:16.782Z,1.3
2017-10-08T18:46:17.656Z,1.6
2017-10-08T18:48:17.506Z,1.5
2017-10-08T18:50:21.372Z,1.7
2017-10-08T18:52:17.223Z,1.5
2017-10-08T18:54:17.112Z,1.2
2017-10-08T18:56:16.975Z,1.9
2017-10-08T18:58:16.841Z,1.7
2017-10-08T19:00:16.706Z,1.8
2017-10-08T19:02:20.553Z,1.4
2017-10-08T19:04:17.397Z,1.1
2017-10-08T19:06:17.283Z,1.5
2017-10-08T19:08:17.133Z,1.3
2017-10-08T19:10:17.995Z,1.3
2017-10-08T19:12:20.829Z,1.4
2017-10-08T19:14:16.703Z,1.3
2017-10-08T19:16:17.553Z,1.6
2017-10-08T19:18:21.425Z,1.8
2017-10-08T19:20:17.262Z,1.3
2017-10-08T19:22:17.134Z,2
2017-10-08T19:24:16.993Z,2.4
2017-10-08T19:26:16.846Z,2.1
2017-10-08T19:28:20.669Z,1.7
2017-10-08T19:30:17.525Z,2.2
2017-10-08T19:32:17.364Z,1.8
2017-10-08T19:34:17.191Z,2.8
2017-10-08T19:36:17.015Z,7.1
2017-10-08T19:38:16.845Z,4.4
2017-10-08T19:40:17.654Z,3.6
2017-10-08T19:42:21.436Z,2.9
2017-10-08T19:44:17.289Z,3.4
2017-10-08T19:46:18.105Z,2.7
2017-10-08T19:48:20.884Z,2.5
2017-10-08T19:50:20.721Z,2.8
2017-10-08T19:52:17.553Z,2.3
2017-10-08T19:54:17.346Z,2.9
2017-10-08T19:56:17.170Z,2.8
2017-10-08T19:58:20.962Z,2.6
2017-10-08T20:00:16.776Z,2.4
2017-10-08T20:02:16.603Z,2.4
2017-10-08T20:04:21.380Z,2.3
2017-10-08T20:06:17.225Z,2.6
2017-10-08T20:08:18.043Z,2.4
2017-10-08T20:10:17.862Z,1.5
2017-10-08T20:12:16.696Z,2
2017-10-08T20:14:17.523Z,2
2017-10-08T20:16:17.369Z,2.4
2017-10-08T20:18:18.194Z,1.1
2017-10-08T20:20:17.023Z,1.4
2017-10-08T20:22:20.836Z,1.2
2017-10-08T20:24:16.666Z,1
2017-10-08T20:26:17.516Z,1
2017-10-08T20:28:17.354Z,1.1
2017-10-08T20:30:17.199Z,0.8
2017-10-08T20:32:20.986Z,0.8
2017-10-08T20:34:16.833Z,1
2017-10-08T20:36:17.659Z,0.9
2017-10-08T20:38:17.482Z,0.8
2017-10-08T20:40:17.308Z,1.1
2017-10-08T20:42:17.135Z,1.1
2017-10-08T20:44:16.970Z,0.8
2017-10-08T20:46:16.845Z,0.8
2017-10-08T20:48:20.636Z,1.1
2017-10-08T20:50:17.479Z,0.8
2017-10-08T20:52:17.304Z,1.1
2017-10-08T20:54:17.142Z,0.8
2017-10-08T20:56:16.988Z,0.8
2017-10-08T20:58:16.809Z,0.9
2017-10-08T21:00:16.646Z,0.9
2017-10-08T21:02:17.483Z,1.1
2017-10-08T21:04:17.316Z,0.8
2017-10-08T21:06:18.171Z,0.8
2017-10-08T21:08:17.009Z,1
2017-10-08T21:10:17.839Z,0.9
2017-10-08T21:12:16.674Z,1
2017-10-08T21:14:17.524Z,0.6
2017-10-08T21:16:17.363Z,0.7
2017-10-08T21:18:18.223Z,0.8
2017-10-08T21:20:18.038Z,0.6
2017-10-08T21:22:16.908Z,0.9
2017-10-08T21:24:16.741Z,1.1
2017-10-08T21:26:17.557Z,1
2017-10-08T21:28:17.400Z,0.7
2017-10-08T21:30:17.227Z,1.1
2017-10-08T21:32:17.048Z,1.1
2017-10-08T21:34:16.870Z,0.8
2017-10-08T21:36:17.724Z,0.8
2017-10-08T21:38:17.568Z,1.2
2017-10-08T21:40:17.394Z,1.2
2017-10-08T21:42:21.186Z,1
2017-10-08T21:44:17.023Z,1.3
2017-10-08T21:46:16.869Z,0.6
2017-10-08T21:48:20.666Z,0.8
2017-10-08T21:50:17.504Z,0.9
2017-10-08T21:52:17.327Z,0.8
2017-10-08T21:54:21.131Z,1
2017-10-08T21:56:16.971Z,0.9
2017-10-08T21:58:16.813Z,0.8
2017-10-08T22:00:17.618Z,1
2017-10-08T22:02:17.453Z,0.8
2017-10-08T22:04:17.277Z,0.7
2017-10-08T22:06:18.082Z,0.6
2017-10-08T22:08:16.931Z,0.7
2017-10-08T22:10:17.736Z,0.8
2017-10-08T22:12:17.581Z,0.8
2017-10-08T22:14:21.362Z,0.9
2017-10-08T22:16:17.227Z,1.1
2017-10-08T22:18:18.018Z,1.9
2017-10-08T22:20:17.840Z,1.7
2017-10-08T22:22:16.673Z,2.6
2017-10-08T22:24:17.486Z,1.8
2017-10-08T22:26:17.311Z,2.4
2017-10-08T22:28:17.131Z,2.9
2017-10-08T22:30:16.961Z,2.6
2017-10-08T22:32:20.742Z,2.3
2017-10-08T22:34:16.586Z,1.2
2017-10-08T22:36:17.400Z,1.4
2017-10-08T22:38:17.229Z,0.6
2017-10-08T22:40:17.032Z,0.8
2017-10-08T22:42:16.860Z,0.7
2017-10-08T22:44:16.682Z,0.7
2017-10-08T22:46:17.485Z,0.9
2017-10-08T22:48:17.317Z,0.7
2017-10-08T22:50:18.135Z,0.9
2017-10-08T22:52:16.951Z,1.1
2017-10-08T22:54:20.761Z,0.9
2017-10-08T22:56:17.582Z,1.1
2017-10-08T22:58:21.399Z,1.1
2017-10-08T23:00:17.235Z,0.9
2017-10-08T23:02:17.063Z,0.8
2017-10-08T23:04:16.873Z,0.7
2017-10-08T23:06:17.691Z,0.9
2017-10-08T23:08:17.517Z,0.8
2017-10-08T23:10:17.336Z,0.7
2017-10-08T23:12:21.137Z,0.9
2017-10-08T23:14:16.955Z,0.8
2017-10-08T23:16:17.768Z,0.7
2017-10-08T23:18:17.592Z,0.8
2017-10-08T23:20:17.415Z,0.7
2017-10-08T23:22:17.248Z,0.9
2017-10-08T23:24:21.037Z,1.1
2017-10-08T23:26:16.871Z,0.8
2017-10-08T23:28:16.712Z,0.6
2017-10-08T23:30:18.523Z,0.8
2017-10-08T23:32:21.309Z,1
2017-10-08T23:34:17.155Z,0.9
2017-10-08T23:36:17.965Z,1
2017-10-08T23:38:16.762Z,0.9
2017-10-08T23:40:17.575Z,0.9
2017-10-08T23:42:21.384Z,0.7
2017-10-08T23:44:17.202Z,0.7
2017-10-08T23:46:18.028Z,1
2017-10-08T23:48:20.831Z,1
2017-10-08T23:50:20.614Z,0.9
2017-10-08T23:52:17.477Z,0.8
2017-10-08T23:54:21.270Z,0.7
2017-10-08T23:56:18.080Z,0.8
2017-10-08T23:58:16.922Z,1.1
